sensor_id;sensor_type;location;lat;lon;timestamp;temperature;humidity
37788;DHT22;23627;53.302;-6.362;2023-07-30T00:01:54;14.90;99.90
37788;DHT22;23627;53.302;-6.362;2023-07-30T00:04:21;14.90;99.90
37788;DHT22;23627;53.302;-6.362;2023-07-30T00:06:46;14.90;99.90
37788;DHT22;23627;53.302;-6.362;2023-07-30T00:09:12;14.80;99.90
37788;DHT22;23627;53.302;-6.362;2023-07-30T00:11:38;14.80;99.90
37788;DHT22;23627;53.302;-6.362;2023-07-30T00:14:04;14.80;99.90
37788;DHT22;23627;53.302;-6.362;2023-07-30T00:16:30;14.70;99.90
37788;DHT22;23627;53.302;-6.362;2023-07-30T00:18:56;14.70;99.90
37788;DHT22;23627;53.302;-6.362;2023-07-30T00:21:22;14.70;99.90
37788;DHT22;23627;53.302;-6.362;2023-07-30T00:23:48;14.70;99.90
37788;DHT22;23627;53.302;-6.362;2023-07-30T00:26:14;14.70;99.90
37788;DHT22;23627;53.302;-6.362;2023-07-30T00:28:40;14.70;99.90
37788;DHT22;23627;53.302;-6.362;2023-07-30T00:31:06;14.70;99.90
37788;DHT22;23627;53.302;-6.362;2023-07-30T00:33:31;14.70;99.90
37788;DHT22;23627;53.302;-6.362;2023-07-30T00:35:57;14.60;99.90
37788;DHT22;23627;53.302;-6.362;2023-07-30T00:38:23;14.70;99.90
37788;DHT22;23627;53.302;-6.362;2023-07-30T00:40:49;14.60;99.90
37788;DHT22;23627;53.302;-6.362;2023-07-30T00:43:15;14.60;99.90
37788;DHT22;23627;53.302;-6.362;2023-07-30T00:45:43;14.60;99.90
37788;DHT22;23627;53.302;-6.362;2023-07-30T00:48:11;14.60;99.90
37788;DHT22;23627;53.302;-6.362;2023-07-30T00:50:39;14.60;99.90
37788;DHT22;23627;53.302;-6.362;2023-07-30T00:53:07;14.60;99.90
37788;DHT22;23627;53.302;-6.362;2023-07-30T00:55:34;14.60;99.90
37788;DHT22;23627;53.302;-6.362;2023-07-30T00:58:00;14.50;99.90
37788;DHT22;23627;53.302;-6.362;2023-07-30T01:00:26;14.60;99.90
37788;DHT22;23627;53.302;-6.362;2023-07-30T01:02:54;14.50;99.90
37788;DHT22;23627;53.302;-6.362;2023-07-30T01:05:19;14.50;99.90
37788;DHT22;23627;53.302;-6.362;2023-07-30T01:07:45;14.50;99.90
37788;DHT22;23627;53.302;-6.362;2023-07-30T01:10:11;14.60;99.90
37788;DHT22;23627;53.302;-6.362;2023-07-30T01:12:38;14.50;99.90
37788;DHT22;23627;53.302;-6.362;2023-07-30T01:15:04;14.50;99.90
37788;DHT22;23627;53.302;-6.362;2023-07-30T01:17:31;14.50;99.90
37788;DHT22;23627;53.302;-6.362;2023-07-30T01:19:57;14.50;99.90
37788;DHT22;23627;53.302;-6.362;2023-07-30T01:22:23;14.50;99.90
37788;DHT22;23627;53.302;-6.362;2023-07-30T01:24:49;14.50;99.90
37788;DHT22;23627;53.302;-6.362;2023-07-30T01:27:26;14.40;99.90
37788;DHT22;23627;53.302;-6.362;2023-07-30T01:29:59;14.40;99.90
37788;DHT22;23627;53.302;-6.362;2023-07-30T01:32:28;14.40;99.90
37788;DHT22;23627;53.302;-6.362;2023-07-30T01:34:57;14.40;99.90
37788;DHT22;23627;53.302;-6.362;2023-07-30T01:37:24;14.40;99.90
37788;DHT22;23627;53.302;-6.362;2023-07-30T01:39:51;14.40;99.90
37788;DHT22;23627;53.302;-6.362;2023-07-30T01:42:17;14.50;99.90
37788;DHT22;23627;53.302;-6.362;2023-07-30T01:44:43;14.40;99.90
37788;DHT22;23627;53.302;-6.362;2023-07-30T01:47:09;14.40;99.90
37788;DHT22;23627;53.302;-6.362;2023-07-30T01:49:35;14.40;99.90
37788;DHT22;23627;53.302;-6.362;2023-07-30T01:52:00;14.40;99.90
37788;DHT22;23627;53.302;-6.362;2023-07-30T01:54:26;14.40;99.90
37788;DHT22;23627;53.302;-6.362;2023-07-30T01:56:53;14.40;99.90
37788;DHT22;23627;53.302;-6.362;2023-07-30T01:59:19;14.40;99.90
37788;DHT22;23627;53.302;-6.362;2023-07-30T02:01:44;14.40;99.90
37788;DHT22;23627;53.302;-6.362;2023-07-30T02:04:10;14.40;99.90
37788;DHT22;23627;53.302;-6.362;2023-07-30T02:06:36;14.40;99.90
37788;DHT22;23627;53.302;-6.362;2023-07-30T02:09:02;14.40;99.90
37788;DHT22;23627;53.302;-6.362;2023-07-30T02:11:28;14.40;99.90
37788;DHT22;23627;53.302;-6.362;2023-07-30T02:13:54;14.40;99.90
37788;DHT22;23627;53.302;-6.362;2023-07-30T02:16:19;14.40;99.90
37788;DHT22;23627;53.302;-6.362;2023-07-30T02:18:46;14.30;99.90
37788;DHT22;23627;53.302;-6.362;2023-07-30T02:21:12;14.30;99.90
37788;DHT22;23627;53.302;-6.362;2023-07-30T02:23:38;14.30;99.90
37788;DHT22;23627;53.302;-6.362;2023-07-30T02:26:04;14.30;99.90
37788;DHT22;23627;53.302;-6.362;2023-07-30T02:28:29;14.20;99.90
37788;DHT22;23627;53.302;-6.362;2023-07-30T02:30:55;14.20;99.90
37788;DHT22;23627;53.302;-6.362;2023-07-30T02:33:21;14.20;99.90
37788;DHT22;23627;53.302;-6.362;2023-07-30T02:35:47;14.20;99.90
37788;DHT22;23627;53.302;-6.362;2023-07-30T02:38:12;14.20;99.90
37788;DHT22;23627;53.302;-6.362;2023-07-30T02:40:38;14.30;99.90
37788;DHT22;23627;53.302;-6.362;2023-07-30T02:43:04;14.30;99.90
37788;DHT22;23627;53.302;-6.362;2023-07-30T02:45:30;14.30;99.90
37788;DHT22;23627;53.302;-6.362;2023-07-30T02:47:56;14.30;99.90
37788;DHT22;23627;53.302;-6.362;2023-07-30T02:50:21;14.30;99.90
37788;DHT22;23627;53.302;-6.362;2023-07-30T02:52:47;14.30;99.90
37788;DHT22;23627;53.302;-6.362;2023-07-30T02:55:13;14.30;99.90
37788;DHT22;23627;53.302;-6.362;2023-07-30T02:57:39;14.20;99.90
37788;DHT22;23627;53.302;-6.362;2023-07-30T03:00:05;14.20;99.90
37788;DHT22;23627;53.302;-6.362;2023-07-30T03:02:31;14.30;99.90
37788;DHT22;23627;53.302;-6.362;2023-07-30T03:04:57;14.20;99.90
37788;DHT22;23627;53.302;-6.362;2023-07-30T03:07:22;14.20;99.90
37788;DHT22;23627;53.302;-6.362;2023-07-30T03:09:48;14.20;99.90
37788;DHT22;23627;53.302;-6.362;2023-07-30T03:12:14;14.20;99.90
37788;DHT22;23627;53.302;-6.362;2023-07-30T03:14:40;14.20;99.90
37788;DHT22;23627;53.302;-6.362;2023-07-30T03:17:06;14.20;99.90
37788;DHT22;23627;53.302;-6.362;2023-07-30T03:19:32;14.20;99.90
37788;DHT22;23627;53.302;-6.362;2023-07-30T03:21:57;14.20;99.90
37788;DHT22;23627;53.302;-6.362;2023-07-30T03:24:23;14.20;99.90
37788;DHT22;23627;53.302;-6.362;2023-07-30T03:26:49;14.20;99.90
37788;DHT22;23627;53.302;-6.362;2023-07-30T03:29:15;14.20;99.90
37788;DHT22;23627;53.302;-6.362;2023-07-30T03:31:41;14.20;99.90
37788;DHT22;23627;53.302;-6.362;2023-07-30T03:34:07;14.10;99.90
37788;DHT22;23627;53.302;-6.362;2023-07-30T03:36:32;14.20;99.90
37788;DHT22;23627;53.302;-6.362;2023-07-30T03:38:58;14.20;99.90
37788;DHT22;23627;53.302;-6.362;2023-07-30T03:41:24;14.20;99.90
37788;DHT22;23627;53.302;-6.362;2023-07-30T03:43:50;14.20;99.90
37788;DHT22;23627;53.302;-6.362;2023-07-30T03:46:16;14.20;99.90
37788;DHT22;23627;53.302;-6.362;2023-07-30T03:48:42;14.20;99.90
37788;DHT22;23627;53.302;-6.362;2023-07-30T03:51:08;14.20;99.90
37788;DHT22;23627;53.302;-6.362;2023-07-30T03:53:34;14.20;99.90
37788;DHT22;23627;53.302;-6.362;2023-07-30T03:55:59;14.20;99.90
37788;DHT22;23627;53.302;-6.362;2023-07-30T03:58:25;14.10;99.90
37788;DHT22;23627;53.302;-6.362;2023-07-30T04:00:51;14.10;99.90
37788;DHT22;23627;53.302;-6.362;2023-07-30T04:03:17;14.10;99.90
37788;DHT22;23627;53.302;-6.362;2023-07-30T04:05:42;14.10;99.90
37788;DHT22;23627;53.302;-6.362;2023-07-30T04:08:08;14.10;99.90
37788;DHT22;23627;53.302;-6.362;2023-07-30T04:10:34;14.10;99.90
37788;DHT22;23627;53.302;-6.362;2023-07-30T04:13:00;14.10;99.90
37788;DHT22;23627;53.302;-6.362;2023-07-30T04:15:25;14.10;99.90
37788;DHT22;23627;53.302;-6.362;2023-07-30T04:17:51;14.10;99.90
37788;DHT22;23627;53.302;-6.362;2023-07-30T04:20:17;14.10;99.90
37788;DHT22;23627;53.302;-6.362;2023-07-30T04:22:43;14.10;99.90
37788;DHT22;23627;53.302;-6.362;2023-07-30T04:25:10;14.10;99.90
37788;DHT22;23627;53.302;-6.362;2023-07-30T04:27:38;14.10;99.90
37788;DHT22;23627;53.302;-6.362;2023-07-30T04:30:07;14.00;99.90
37788;DHT22;23627;53.302;-6.362;2023-07-30T04:32:33;14.10;99.90
37788;DHT22;23627;53.302;-6.362;2023-07-30T04:35:00;14.10;99.90
37788;DHT22;23627;53.302;-6.362;2023-07-30T04:37:26;14.00;99.90
37788;DHT22;23627;53.302;-6.362;2023-07-30T04:39:51;14.10;99.90
37788;DHT22;23627;53.302;-6.362;2023-07-30T04:42:17;14.10;99.90
37788;DHT22;23627;53.302;-6.362;2023-07-30T04:44:44;14.10;99.90
37788;DHT22;23627;53.302;-6.362;2023-07-30T04:47:09;14.10;99.90
37788;DHT22;23627;53.302;-6.362;2023-07-30T04:49:35;14.00;99.90
37788;DHT22;23627;53.302;-6.362;2023-07-30T04:52:03;14.10;99.90
37788;DHT22;23627;53.302;-6.362;2023-07-30T04:54:29;14.00;99.90
37788;DHT22;23627;53.302;-6.362;2023-07-30T04:56:54;14.10;99.90
37788;DHT22;23627;53.302;-6.362;2023-07-30T04:59:20;14.10;99.90
37788;DHT22;23627;53.302;-6.362;2023-07-30T05:01:46;14.10;99.90
37788;DHT22;23627;53.302;-6.362;2023-07-30T05:04:12;14.00;99.90
37788;DHT22;23627;53.302;-6.362;2023-07-30T05:06:37;14.10;99.90
37788;DHT22;23627;53.302;-6.362;2023-07-30T05:09:03;14.10;99.90
37788;DHT22;23627;53.302;-6.362;2023-07-30T05:11:29;14.10;99.90
37788;DHT22;23627;53.302;-6.362;2023-07-30T05:13:55;14.00;99.90
37788;DHT22;23627;53.302;-6.362;2023-07-30T05:16:20;14.00;99.90
37788;DHT22;23627;53.302;-6.362;2023-07-30T05:18:46;14.00;99.90
37788;DHT22;23627;53.302;-6.362;2023-07-30T05:21:12;14.00;99.90
37788;DHT22;23627;53.302;-6.362;2023-07-30T05:23:38;14.00;99.90
37788;DHT22;23627;53.302;-6.362;2023-07-30T05:26:04;14.00;99.90
37788;DHT22;23627;53.302;-6.362;2023-07-30T05:28:30;14.00;99.90
37788;DHT22;23627;53.302;-6.362;2023-07-30T05:30:56;14.00;99.90
37788;DHT22;23627;53.302;-6.362;2023-07-30T05:33:22;14.10;99.90
37788;DHT22;23627;53.302;-6.362;2023-07-30T05:35:48;14.10;99.90
37788;DHT22;23627;53.302;-6.362;2023-07-30T05:38:13;14.10;99.90
37788;DHT22;23627;53.302;-6.362;2023-07-30T05:40:41;14.10;99.90
37788;DHT22;23627;53.302;-6.362;2023-07-30T05:43:07;14.10;99.90
37788;DHT22;23627;53.302;-6.362;2023-07-30T05:45:34;14.10;99.90
37788;DHT22;23627;53.302;-6.362;2023-07-30T05:48:00;14.10;99.90
37788;DHT22;23627;53.302;-6.362;2023-07-30T05:50:26;14.20;99.90
37788;DHT22;23627;53.302;-6.362;2023-07-30T05:52:51;14.20;99.90
37788;DHT22;23627;53.302;-6.362;2023-07-30T05:55:17;14.30;99.90
37788;DHT22;23627;53.302;-6.362;2023-07-30T05:57:43;14.40;99.90
37788;DHT22;23627;53.302;-6.362;2023-07-30T06:00:09;14.40;99.90
37788;DHT22;23627;53.302;-6.362;2023-07-30T06:02:35;14.40;99.90
37788;DHT22;23627;53.302;-6.362;2023-07-30T06:05:01;14.40;99.90
37788;DHT22;23627;53.302;-6.362;2023-07-30T06:07:26;14.50;99.90
37788;DHT22;23627;53.302;-6.362;2023-07-30T06:09:52;14.50;99.90
37788;DHT22;23627;53.302;-6.362;2023-07-30T06:12:18;14.50;99.90
37788;DHT22;23627;53.302;-6.362;2023-07-30T06:14:43;14.50;99.90
37788;DHT22;23627;53.302;-6.362;2023-07-30T06:17:09;14.50;99.90
37788;DHT22;23627;53.302;-6.362;2023-07-30T06:19:35;14.50;99.90
37788;DHT22;23627;53.302;-6.362;2023-07-30T06:22:00;14.40;99.90
37788;DHT22;23627;53.302;-6.362;2023-07-30T06:24:26;14.30;99.90
37788;DHT22;23627;53.302;-6.362;2023-07-30T06:26:52;14.40;99.90
37788;DHT22;23627;53.302;-6.362;2023-07-30T06:29:18;14.40;99.90
37788;DHT22;23627;53.302;-6.362;2023-07-30T06:31:43;14.40;99.90
37788;DHT22;23627;53.302;-6.362;2023-07-30T06:34:09;14.40;99.90
37788;DHT22;23627;53.302;-6.362;2023-07-30T06:36:35;14.40;99.90
37788;DHT22;23627;53.302;-6.362;2023-07-30T06:39:01;14.50;99.90
37788;DHT22;23627;53.302;-6.362;2023-07-30T06:41:27;14.60;99.90
37788;DHT22;23627;53.302;-6.362;2023-07-30T06:43:52;14.70;99.90
37788;DHT22;23627;53.302;-6.362;2023-07-30T06:46:18;14.70;99.90
37788;DHT22;23627;53.302;-6.362;2023-07-30T06:48:44;14.80;99.90
37788;DHT22;23627;53.302;-6.362;2023-07-30T06:51:10;14.80;99.90
37788;DHT22;23627;53.302;-6.362;2023-07-30T06:53:38;14.70;99.90
37788;DHT22;23627;53.302;-6.362;2023-07-30T06:56:04;14.70;99.90
37788;DHT22;23627;53.302;-6.362;2023-07-30T06:58:29;14.70;99.90
37788;DHT22;23627;53.302;-6.362;2023-07-30T07:00:55;14.70;99.90
37788;DHT22;23627;53.302;-6.362;2023-07-30T07:03:21;14.60;99.90
37788;DHT22;23627;53.302;-6.362;2023-07-30T07:05:56;14.70;99.90
37788;DHT22;23627;53.302;-6.362;2023-07-30T07:08:22;14.70;99.90
37788;DHT22;23627;53.302;-6.362;2023-07-30T07:10:49;14.70;99.90
37788;DHT22;23627;53.302;-6.362;2023-07-30T07:13:15;14.70;99.90
37788;DHT22;23627;53.302;-6.362;2023-07-30T07:15:41;14.70;99.90
37788;DHT22;23627;53.302;-6.362;2023-07-30T07:18:07;14.80;99.90
37788;DHT22;23627;53.302;-6.362;2023-07-30T07:20:33;14.80;99.90
37788;DHT22;23627;53.302;-6.362;2023-07-30T07:22:59;14.90;99.90
37788;DHT22;23627;53.302;-6.362;2023-07-30T07:25:25;15.00;99.90
37788;DHT22;23627;53.302;-6.362;2023-07-30T07:27:51;15.10;99.90
37788;DHT22;23627;53.302;-6.362;2023-07-30T07:30:16;15.40;99.90
37788;DHT22;23627;53.302;-6.362;2023-07-30T07:32:42;15.60;99.90
37788;DHT22;23627;53.302;-6.362;2023-07-30T07:35:09;15.90;99.90
37788;DHT22;23627;53.302;-6.362;2023-07-30T07:37:34;16.20;99.90
37788;DHT22;23627;53.302;-6.362;2023-07-30T07:40:01;16.50;99.90
37788;DHT22;23627;53.302;-6.362;2023-07-30T07:42:28;16.90;99.90
37788;DHT22;23627;53.302;-6.362;2023-07-30T07:44:54;17.20;99.90
37788;DHT22;23627;53.302;-6.362;2023-07-30T07:47:19;17.30;99.90
37788;DHT22;23627;53.302;-6.362;2023-07-30T07:49:45;17.30;99.90
37788;DHT22;23627;53.302;-6.362;2023-07-30T07:52:11;17.40;99.90
37788;DHT22;23627;53.302;-6.362;2023-07-30T07:54:37;17.50;99.90
37788;DHT22;23627;53.302;-6.362;2023-07-30T07:57:02;17.40;99.90
37788;DHT22;23627;53.302;-6.362;2023-07-30T07:59:28;17.40;99.90
37788;DHT22;23627;53.302;-6.362;2023-07-30T08:01:54;17.30;99.90
37788;DHT22;23627;53.302;-6.362;2023-07-30T08:04:20;17.30;99.90
37788;DHT22;23627;53.302;-6.362;2023-07-30T08:06:49;17.30;99.90
37788;DHT22;23627;53.302;-6.362;2023-07-30T08:09:14;17.40;99.90
37788;DHT22;23627;53.302;-6.362;2023-07-30T08:11:40;17.40;99.90
37788;DHT22;23627;53.302;-6.362;2023-07-30T08:14:06;17.40;99.90
37788;DHT22;23627;53.302;-6.362;2023-07-30T08:16:32;17.40;99.90
37788;DHT22;23627;53.302;-6.362;2023-07-30T08:18:57;17.50;99.90
37788;DHT22;23627;53.302;-6.362;2023-07-30T08:21:23;17.60;99.90
37788;DHT22;23627;53.302;-6.362;2023-07-30T08:23:49;17.60;99.90
37788;DHT22;23627;53.302;-6.362;2023-07-30T08:26:14;17.60;99.90
37788;DHT22;23627;53.302;-6.362;2023-07-30T08:28:40;17.70;99.90
37788;DHT22;23627;53.302;-6.362;2023-07-30T08:31:06;17.60;99.90
37788;DHT22;23627;53.302;-6.362;2023-07-30T08:33:32;17.60;99.90
37788;DHT22;23627;53.302;-6.362;2023-07-30T08:35:58;17.50;99.90
37788;DHT22;23627;53.302;-6.362;2023-07-30T08:38:25;17.50;99.90
37788;DHT22;23627;53.302;-6.362;2023-07-30T08:40:53;17.50;99.90
37788;DHT22;23627;53.302;-6.362;2023-07-30T08:43:19;17.40;99.90
37788;DHT22;23627;53.302;-6.362;2023-07-30T08:45:45;17.40;99.90
37788;DHT22;23627;53.302;-6.362;2023-07-30T08:48:10;17.30;99.90
37788;DHT22;23627;53.302;-6.362;2023-07-30T08:50:37;17.10;99.90
37788;DHT22;23627;53.302;-6.362;2023-07-30T08:53:03;17.00;99.90
37788;DHT22;23627;53.302;-6.362;2023-07-30T08:55:32;16.80;99.90
37788;DHT22;23627;53.302;-6.362;2023-07-30T08:58:04;16.70;99.90
37788;DHT22;23627;53.302;-6.362;2023-07-30T09:00:32;16.60;99.90
37788;DHT22;23627;53.302;-6.362;2023-07-30T09:03:00;16.60;99.90
37788;DHT22;23627;53.302;-6.362;2023-07-30T09:05:26;16.50;99.90
37788;DHT22;23627;53.302;-6.362;2023-07-30T09:07:55;16.40;99.90
37788;DHT22;23627;53.302;-6.362;2023-07-30T09:10:21;16.30;99.90
37788;DHT22;23627;53.302;-6.362;2023-07-30T09:12:53;16.30;99.90
37788;DHT22;23627;53.302;-6.362;2023-07-30T09:15:36;16.20;99.90
37788;DHT22;23627;53.302;-6.362;2023-07-30T09:18:05;16.20;99.90
37788;DHT22;23627;53.302;-6.362;2023-07-30T09:20:38;16.20;99.90
37788;DHT22;23627;53.302;-6.362;2023-07-30T09:23:06;16.20;99.90
37788;DHT22;23627;53.302;-6.362;2023-07-30T09:25:33;16.30;99.90
37788;DHT22;23627;53.302;-6.362;2023-07-30T09:27:58;16.40;99.90
37788;DHT22;23627;53.302;-6.362;2023-07-30T09:30:25;16.50;99.90
37788;DHT22;23627;53.302;-6.362;2023-07-30T09:32:54;16.70;99.90
37788;DHT22;23627;53.302;-6.362;2023-07-30T09:35:20;16.80;99.90
37788;DHT22;23627;53.302;-6.362;2023-07-30T09:37:47;16.90;99.90
37788;DHT22;23627;53.302;-6.362;2023-07-30T09:40:15;17.00;99.90
37788;DHT22;23627;53.302;-6.362;2023-07-30T09:42:48;17.10;99.90
37788;DHT22;23627;53.302;-6.362;2023-07-30T09:45:22;17.10;99.90
37788;DHT22;23627;53.302;-6.362;2023-07-30T09:47:50;17.10;99.90
37788;DHT22;23627;53.302;-6.362;2023-07-30T09:50:16;17.10;99.90
37788;DHT22;23627;53.302;-6.362;2023-07-30T09:52:42;17.00;99.90
37788;DHT22;23627;53.302;-6.362;2023-07-30T09:55:09;17.00;99.90
37788;DHT22;23627;53.302;-6.362;2023-07-30T09:57:38;16.90;99.90
37788;DHT22;23627;53.302;-6.362;2023-07-30T10:00:05;16.90;99.90
37788;DHT22;23627;53.302;-6.362;2023-07-30T10:02:32;16.90;99.90
37788;DHT22;23627;53.302;-6.362;2023-07-30T10:05:03;17.00;99.90
37788;DHT22;23627;53.302;-6.362;2023-07-30T10:07:34;17.00;99.90
37788;DHT22;23627;53.302;-6.362;2023-07-30T10:10:02;17.10;99.90
37788;DHT22;23627;53.302;-6.362;2023-07-30T10:12:32;17.10;99.90
37788;DHT22;23627;53.302;-6.362;2023-07-30T10:15:01;17.20;99.90
37788;DHT22;23627;53.302;-6.362;2023-07-30T10:17:27;17.30;99.90
37788;DHT22;23627;53.302;-6.362;2023-07-30T10:19:54;17.30;99.90
37788;DHT22;23627;53.302;-6.362;2023-07-30T10:22:21;17.30;99.90
37788;DHT22;23627;53.302;-6.362;2023-07-30T10:25:00;17.30;99.90
37788;DHT22;23627;53.302;-6.362;2023-07-30T10:27:38;17.40;99.90
37788;DHT22;23627;53.302;-6.362;2023-07-30T10:30:15;17.50;99.90
37788;DHT22;23627;53.302;-6.362;2023-07-30T10:35:43;17.50;99.90
37788;DHT22;23627;53.302;-6.362;2023-07-30T10:38:17;17.50;99.90
37788;DHT22;23627;53.302;-6.362;2023-07-30T10:41:00;17.50;99.90
37788;DHT22;23627;53.302;-6.362;2023-07-30T10:43:43;17.50;99.90
37788;DHT22;23627;53.302;-6.362;2023-07-30T10:46:12;17.50;99.90
37788;DHT22;23627;53.302;-6.362;2023-07-30T10:48:39;17.50;99.90
37788;DHT22;23627;53.302;-6.362;2023-07-30T10:51:08;17.40;99.90
37788;DHT22;23627;53.302;-6.362;2023-07-30T10:53:34;17.40;99.90
37788;DHT22;23627;53.302;-6.362;2023-07-30T10:56:09;17.40;99.90
37788;DHT22;23627;53.302;-6.362;2023-07-30T10:58:35;17.40;99.90
37788;DHT22;23627;53.302;-6.362;2023-07-30T11:01:03;17.40;99.90
37788;DHT22;23627;53.302;-6.362;2023-07-30T11:03:29;17.40;99.90
37788;DHT22;23627;53.302;-6.362;2023-07-30T11:05:57;17.40;99.90
37788;DHT22;23627;53.302;-6.362;2023-07-30T11:08:37;17.40;99.90
37788;DHT22;23627;53.302;-6.362;2023-07-30T11:11:04;17.30;99.90
37788;DHT22;23627;53.302;-6.362;2023-07-30T11:13:43;17.30;99.90
37788;DHT22;23627;53.302;-6.362;2023-07-30T11:16:29;17.30;99.90
37788;DHT22;23627;53.302;-6.362;2023-07-30T11:19:02;17.30;99.90
37788;DHT22;23627;53.302;-6.362;2023-07-30T11:25:27;17.50;99.90
37788;DHT22;23627;53.302;-6.362;2023-07-30T11:27:55;17.50;99.90
37788;DHT22;23627;53.302;-6.362;2023-07-30T11:30:40;17.60;99.90
37788;DHT22;23627;53.302;-6.362;2023-07-30T11:33:17;17.70;99.90
37788;DHT22;23627;53.302;-6.362;2023-07-30T11:35:45;17.70;99.90
37788;DHT22;23627;53.302;-6.362;2023-07-30T11:38:16;17.70;99.90
37788;DHT22;23627;53.302;-6.362;2023-07-30T11:40:56;17.70;99.90
37788;DHT22;23627;53.302;-6.362;2023-07-30T11:43:31;17.70;99.90
37788;DHT22;23627;53.302;-6.362;2023-07-30T11:52:59;17.60;99.90
37788;DHT22;23627;53.302;-6.362;2023-07-30T11:55:39;17.60;99.90
37788;DHT22;23627;53.302;-6.362;2023-07-30T11:58:11;17.60;99.90
37788;DHT22;23627;53.302;-6.362;2023-07-30T12:00:46;17.60;99.90
37788;DHT22;23627;53.302;-6.362;2023-07-30T12:03:25;17.70;99.90
37788;DHT22;23627;53.302;-6.362;2023-07-30T12:06:05;17.70;99.90
37788;DHT22;23627;53.302;-6.362;2023-07-30T12:08:42;17.80;99.90
37788;DHT22;23627;53.302;-6.362;2023-07-30T12:11:17;18.00;99.90
37788;DHT22;23627;53.302;-6.362;2023-07-30T12:13:45;18.00;99.90
37788;DHT22;23627;53.302;-6.362;2023-07-30T12:22:52;17.90;99.90
37788;DHT22;23627;53.302;-6.362;2023-07-30T12:25:36;18.00;99.90
37788;DHT22;23627;53.302;-6.362;2023-07-30T12:28:14;18.00;99.90
37788;DHT22;23627;53.302;-6.362;2023-07-30T12:30:50;18.20;99.90
37788;DHT22;23627;53.302;-6.362;2023-07-30T12:33:23;18.30;99.90
37788;DHT22;23627;53.302;-6.362;2023-07-30T12:36:03;18.30;99.90
37788;DHT22;23627;53.302;-6.362;2023-07-30T12:38:37;18.40;99.90
37788;DHT22;23627;53.302;-6.362;2023-07-30T12:41:05;18.40;99.90
37788;DHT22;23627;53.302;-6.362;2023-07-30T12:43:45;18.40;99.90
37788;DHT22;23627;53.302;-6.362;2023-07-30T12:46:19;18.30;99.90
37788;DHT22;23627;53.302;-6.362;2023-07-30T12:49:01;18.30;99.90
37788;DHT22;23627;53.302;-6.362;2023-07-30T12:52:14;18.40;99.90
37788;DHT22;23627;53.302;-6.362;2023-07-30T12:55:26;18.40;99.90
37788;DHT22;23627;53.302;-6.362;2023-07-30T12:57:52;18.50;99.90
37788;DHT22;23627;53.302;-6.362;2023-07-30T13:00:17;18.60;99.90
37788;DHT22;23627;53.302;-6.362;2023-07-30T13:02:46;18.70;99.90
37788;DHT22;23627;53.302;-6.362;2023-07-30T13:05:11;18.70;99.90
37788;DHT22;23627;53.302;-6.362;2023-07-30T13:07:42;18.80;99.90
37788;DHT22;23627;53.302;-6.362;2023-07-30T13:10:15;18.70;99.90
37788;DHT22;23627;53.302;-6.362;2023-07-30T13:12:44;18.60;99.90
37788;DHT22;23627;53.302;-6.362;2023-07-30T13:15:10;18.60;99.90
37788;DHT22;23627;53.302;-6.362;2023-07-30T13:17:36;18.50;99.90
37788;DHT22;23627;53.302;-6.362;2023-07-30T13:20:02;18.50;99.90
37788;DHT22;23627;53.302;-6.362;2023-07-30T13:22:29;18.40;99.90
37788;DHT22;23627;53.302;-6.362;2023-07-30T13:24:55;18.30;99.90
37788;DHT22;23627;53.302;-6.362;2023-07-30T13:27:21;18.20;99.90
37788;DHT22;23627;53.302;-6.362;2023-07-30T13:29:47;18.10;99.90
37788;DHT22;23627;53.302;-6.362;2023-07-30T13:32:14;18.10;99.90
37788;DHT22;23627;53.302;-6.362;2023-07-30T13:34:40;18.10;99.90
37788;DHT22;23627;53.302;-6.362;2023-07-30T13:37:06;18.00;99.90
37788;DHT22;23627;53.302;-6.362;2023-07-30T13:39:32;18.00;99.90
37788;DHT22;23627;53.302;-6.362;2023-07-30T13:41:58;18.00;99.90
37788;DHT22;23627;53.302;-6.362;2023-07-30T13:44:24;18.10;99.90
37788;DHT22;23627;53.302;-6.362;2023-07-30T13:46:49;18.20;99.90
37788;DHT22;23627;53.302;-6.362;2023-07-30T13:49:16;18.20;99.90
37788;DHT22;23627;53.302;-6.362;2023-07-30T13:51:41;18.30;99.90
37788;DHT22;23627;53.302;-6.362;2023-07-30T13:54:07;18.40;99.90
37788;DHT22;23627;53.302;-6.362;2023-07-30T13:56:33;18.30;99.90
37788;DHT22;23627;53.302;-6.362;2023-07-30T13:58:59;18.20;99.90
37788;DHT22;23627;53.302;-6.362;2023-07-30T14:01:25;18.10;99.90
37788;DHT22;23627;53.302;-6.362;2023-07-30T14:03:51;18.10;99.90
37788;DHT22;23627;53.302;-6.362;2023-07-30T14:06:17;17.90;99.90
37788;DHT22;23627;53.302;-6.362;2023-07-30T14:08:43;17.90;99.90
37788;DHT22;23627;53.302;-6.362;2023-07-30T14:11:08;17.90;99.90
37788;DHT22;23627;53.302;-6.362;2023-07-30T14:13:34;17.90;99.90
37788;DHT22;23627;53.302;-6.362;2023-07-30T14:16:00;17.90;99.90
37788;DHT22;23627;53.302;-6.362;2023-07-30T14:18:25;17.90;99.90
37788;DHT22;23627;53.302;-6.362;2023-07-30T14:20:51;17.90;99.90
37788;DHT22;23627;53.302;-6.362;2023-07-30T14:23:18;17.90;99.90
37788;DHT22;23627;53.302;-6.362;2023-07-30T14:25:43;18.00;99.90
37788;DHT22;23627;53.302;-6.362;2023-07-30T14:28:09;18.10;99.90
37788;DHT22;23627;53.302;-6.362;2023-07-30T14:30:35;18.10;99.90
37788;DHT22;23627;53.302;-6.362;2023-07-30T14:33:02;18.10;99.90
37788;DHT22;23627;53.302;-6.362;2023-07-30T14:35:28;18.20;99.90
37788;DHT22;23627;53.302;-6.362;2023-07-30T14:37:54;18.20;99.90
37788;DHT22;23627;53.302;-6.362;2023-07-30T14:40:20;18.20;99.90
37788;DHT22;23627;53.302;-6.362;2023-07-30T14:42:46;18.20;99.90
37788;DHT22;23627;53.302;-6.362;2023-07-30T14:45:12;18.30;99.90
37788;DHT22;23627;53.302;-6.362;2023-07-30T14:47:37;18.50;99.90
37788;DHT22;23627;53.302;-6.362;2023-07-30T14:50:05;18.60;99.90
37788;DHT22;23627;53.302;-6.362;2023-07-30T14:52:31;18.70;99.90
37788;DHT22;23627;53.302;-6.362;2023-07-30T14:54:57;18.80;99.90
37788;DHT22;23627;53.302;-6.362;2023-07-30T14:57:23;18.70;99.90
37788;DHT22;23627;53.302;-6.362;2023-07-30T14:59:49;18.60;99.90
37788;DHT22;23627;53.302;-6.362;2023-07-30T15:02:15;18.60;99.90
37788;DHT22;23627;53.302;-6.362;2023-07-30T15:04:40;18.60;99.90
37788;DHT22;23627;53.302;-6.362;2023-07-30T15:07:06;18.70;99.90
37788;DHT22;23627;53.302;-6.362;2023-07-30T15:09:34;18.60;99.90
37788;DHT22;23627;53.302;-6.362;2023-07-30T15:12:01;18.50;99.90
37788;DHT22;23627;53.302;-6.362;2023-07-30T15:14:27;18.40;99.90
37788;DHT22;23627;53.302;-6.362;2023-07-30T15:16:53;18.40;99.90
37788;DHT22;23627;53.302;-6.362;2023-07-30T15:19:19;18.30;99.90
37788;DHT22;23627;53.302;-6.362;2023-07-30T15:21:45;18.30;99.90
37788;DHT22;23627;53.302;-6.362;2023-07-30T15:24:11;18.20;99.90
37788;DHT22;23627;53.302;-6.362;2023-07-30T15:26:36;18.20;99.90
37788;DHT22;23627;53.302;-6.362;2023-07-30T15:29:02;18.10;99.90
37788;DHT22;23627;53.302;-6.362;2023-07-30T15:31:29;18.10;99.90
37788;DHT22;23627;53.302;-6.362;2023-07-30T15:33:55;18.10;99.90
37788;DHT22;23627;53.302;-6.362;2023-07-30T15:36:22;18.10;99.90
37788;DHT22;23627;53.302;-6.362;2023-07-30T15:38:48;18.10;99.90